Time,TemperatureF,DewpointF,PressureIn,WindDirection,WindDirectionDegrees,WindSpeedMPH,WindSpeedGustMPH,Humidity,HourlyPrecipIn,Conditions,Clouds,dailyrainin,SoftwareType,DateUTC
2013-01-10 00:23:00,54.0,-99.9,-100.00,WNW,287,1.0,-999.0,102,0.00,,,-99.99,,2013-01-10 05:23:00,
2013-01-10 00:33:00,54.0,-99.9,-100.00,WNW,287,1.0,-999.0,102,0.00,,,-99.99,,2013-01-10 05:33:00,
2013-01-10 00:43:00,54.0,-99.9,-100.00,WNW,287,1.0,-999.0,102,0.00,,,-99.99,,2013-01-10 05:43:00,
2013-01-10 01:22:00,55.0,-99.9,-100.00,North,350,3.0,-999.0,104,0.00,,,-99.99,,2013-01-10 06:22:00,
2013-01-10 01:33:00,55.0,-99.9,-100.00,North,350,3.0,-999.0,104,0.00,,,-99.99,,2013-01-10 06:33:00,
2013-01-10 01:43:00,55.0,-99.9,-100.00,North,350,3.0,-999.0,104,0.00,,,-99.99,,2013-01-10 06:43:00,
2013-01-10 02:22:00,54.0,-99.9,-100.00,North,352,3.0,-999.0,106,0.00,,,-99.99,,2013-01-10 07:22:00,
2013-01-10 02:32:00,54.0,-99.9,-100.00,North,352,3.0,-999.0,106,0.00,,,-99.99,,2013-01-10 07:32:00,
2013-01-10 02:42:00,54.0,-99.9,-100.00,North,352,3.0,-999.0,106,0.00,,,-99.99,,2013-01-10 07:42:00,
2013-01-10 03:22:00,53.0,-99.9,-100.00,North,349,3.0,-999.0,112,0.00,,,-99.99,,2013-01-10 08:22:00,
2013-01-10 03:33:00,53.0,-99.9,-100.00,North,349,3.0,-999.0,112,0.00,,,-99.99,,2013-01-10 08:33:00,
2013-01-10 03:42:00,53.0,-99.9,-100.00,North,349,3.0,-999.0,112,0.00,,,-99.99,,2013-01-10 08:42:00,
2013-01-10 04:22:00,54.0,-99.9,-100.00,NNW,348,2.0,-999.0,111,0.00,,,-99.99,,2013-01-10 09:22:00,
2013-01-10 04:32:00,54.0,-99.9,-100.00,NNW,348,2.0,-999.0,111,0.00,,,-99.99,,2013-01-10 09:32:00,
2013-01-10 04:43:00,54.0,-99.9,-100.00,NNW,348,2.0,-999.0,111,0.00,,,-99.99,,2013-01-10 09:43:00,
2013-01-10 05:22:00,53.0,-99.9,-100.00,NNE,14,3.0,-999.0,109,0.00,,,-99.99,,2013-01-10 10:22:00,
2013-01-10 05:33:00,53.0,-99.9,-100.00,NNE,14,3.0,-999.0,109,0.00,,,-99.99,,2013-01-10 10:33:00,
2013-01-10 05:43:00,53.0,-99.9,-100.00,NNE,14,3.0,-999.0,109,0.00,,,-99.99,,2013-01-10 10:43:00,
2013-01-10 06:12:00,53.0,-99.9,-100.00,NNE,17,5.0,-999.0,109,-99.99,,,-99.99,,2013-01-10 11:12:00,
2013-01-10 06:23:00,53.0,-99.9,-100.00,NNE,17,5.0,-999.0,109,0.00,,,-99.99,,2013-01-10 11:23:00,
2013-01-10 06:33:00,53.0,-99.9,-100.00,NNE,17,5.0,-999.0,109,0.00,,,-99.99,,2013-01-10 11:33:00,
2013-01-10 06:43:00,53.0,-99.9,-100.00,NNE,17,5.0,-999.0,109,0.00,,,-99.99,,2013-01-10 11:43:00,
2013-01-10 07:22:00,54.0,-99.9,-100.00,NNE,30,5.0,-999.0,115,0.00,,,-99.99,,2013-01-10 12:22:00,
2013-01-10 07:33:00,54.0,-99.9,-100.00,NNE,30,5.0,-999.0,115,0.00,,,-99.99,,2013-01-10 12:33:00,
2013-01-10 07:43:00,54.0,-99.9,-100.00,NNE,30,5.0,-999.0,115,0.00,,,-99.99,,2013-01-10 12:43:00,
2013-01-10 08:22:00,54.0,-99.9,-100.00,NNE,23,6.0,-999.0,110,0.00,,,-99.99,,2013-01-10 13:22:00,
2013-01-10 08:33:00,54.0,-99.9,-100.00,NNE,23,6.0,-999.0,110,0.00,,,-99.99,,2013-01-10 13:33:00,
2013-01-10 08:42:00,54.0,-99.9,-100.00,NNE,23,6.0,-999.0,110,0.00,,,-99.99,,2013-01-10 13:42:00,
2013-01-10 09:23:00,57.0,-99.9,-100.00,NNE,32,8.0,-999.0,113,0.00,,,-99.99,,2013-01-10 14:23:00,
2013-01-10 09:33:00,57.0,-99.9,-100.00,NNE,32,8.0,-999.0,113,0.00,,,-99.99,,2013-01-10 14:33:00,
2013-01-10 09:44:00,57.0,-99.9,-100.00,NNE,32,8.0,-999.0,113,0.00,,,-99.99,,2013-01-10 14:44:00,
2013-01-10 10:23:00,61.0,56.0,-100.00,ENE,57,13.0,-999.0,84,0.00,,,-99.99,,2013-01-10 15:23:00,
2013-01-10 10:33:00,61.0,56.0,-100.00,ENE,57,13.0,-999.0,84,0.00,,,-99.99,,2013-01-10 15:33:00,
2013-01-10 10:43:00,61.0,56.0,-100.00,ENE,57,13.0,-999.0,84,0.00,,,-99.99,,2013-01-10 15:43:00,
2013-01-10 11:23:00,60.0,54.0,-100.00,ENE,58,17.0,-999.0,80,0.00,,,-99.99,,2013-01-10 16:23:00,
2013-01-10 11:33:00,60.0,54.0,-100.00,ENE,58,17.0,-999.0,80,0.00,,,-99.99,,2013-01-10 16:33:00,
2013-01-10 11:43:00,60.0,54.0,-100.00,ENE,58,17.0,-999.0,80,0.00,,,-99.99,,2013-01-10 16:43:00,
2013-01-10 12:23:00,59.0,54.0,-100.00,ENE,67,15.0,-999.0,84,0.00,,,-99.99,,2013-01-10 17:23:00,
2013-01-10 12:33:00,59.0,54.0,-100.00,ENE,67,15.0,-999.0,84,0.00,,,-99.99,,2013-01-10 17:33:00,
2013-01-10 12:43:00,59.0,54.0,-100.00,ENE,67,15.0,-999.0,84,0.00,,,-99.99,,2013-01-10 17:43:00,
2013-01-10 13:23:00,60.0,54.0,-100.00,ENE,68,16.0,-999.0,81,0.00,,,-99.99,,2013-01-10 18:23:00,
2013-01-10 13:33:00,60.0,54.0,-100.00,ENE,68,16.0,-999.0,81,0.00,,,-99.99,,2013-01-10 18:33:00,
2013-01-10 13:43:00,60.0,54.0,-100.00,ENE,68,16.0,-999.0,81,0.00,,,-99.99,,2013-01-10 18:43:00,
2013-01-10 14:23:00,59.0,54.0,-100.00,ENE,63,16.0,-999.0,82,0.00,,,-99.99,,2013-01-10 19:23:00,
2013-01-10 14:33:00,59.0,54.0,-100.00,ENE,63,16.0,-999.0,82,0.00,,,-99.99,,2013-01-10 19:33:00,
2013-01-10 14:43:00,59.0,54.0,-100.00,ENE,63,16.0,-999.0,82,0.00,,,-99.99,,2013-01-10 19:43:00,
2013-01-10 15:24:00,57.0,53.0,-100.00,ENE,60,16.0,-999.0,86,0.00,,,-99.99,,2013-01-10 20:24:00,
2013-01-10 15:33:00,57.0,53.0,-100.00,ENE,60,16.0,-999.0,86,0.00,,,-99.99,,2013-01-10 20:33:00,
2013-01-10 15:43:00,57.0,53.0,-100.00,ENE,60,16.0,-999.0,86,0.00,,,-99.99,,2013-01-10 20:43:00,
2013-01-10 16:33:00,57.0,52.0,-100.00,ENE,58,14.0,-999.0,85,0.00,,,-99.99,,2013-01-10 21:33:00,
2013-01-10 16:43:00,57.0,52.0,-100.00,ENE,58,14.0,-999.0,85,0.00,,,-99.99,,2013-01-10 21:43:00,
2013-01-10 17:27:00,57.0,51.0,-100.00,NE,54,14.0,-999.0,82,0.00,,,-99.99,,2013-01-10 22:27:00,
2013-01-10 17:34:00,57.0,51.0,-100.00,NE,54,14.0,-999.0,82,0.00,,,-99.99,,2013-01-10 22:34:00,
2013-01-10 17:44:00,57.0,51.0,-100.00,NE,54,14.0,-999.0,82,0.00,,,-99.99,,2013-01-10 22:44:00,
2013-01-10 18:23:00,56.0,50.0,-100.00,ENE,59,13.0,-999.0,80,0.00,,,-99.99,,2013-01-10 23:23:00,
2013-01-10 18:33:00,56.0,50.0,-100.00,ENE,59,13.0,-999.0,80,0.00,,,-99.99,,2013-01-10 23:33:00,
2013-01-10 18:43:00,56.0,50.0,-100.00,ENE,59,13.0,-999.0,80,0.00,,,-99.99,,2013-01-10 23:43:00,
2013-01-10 19:23:00,56.0,49.0,-100.00,NE,52,15.0,-999.0,76,0.00,,,-99.99,,2013-01-11 00:23:00,
2013-01-10 19:33:00,56.0,49.0,-100.00,NE,52,15.0,-999.0,76,0.00,,,-99.99,,2013-01-11 00:33:00,
2013-01-10 19:43:00,56.0,49.0,-100.00,NE,52,15.0,-999.0,76,0.00,,,-99.99,,2013-01-11 00:43:00,
2013-01-10 20:24:00,56.0,48.0,-100.00,NE,55,15.0,-999.0,72,0.00,,,-99.99,,2013-01-11 01:24:00,
2013-01-10 20:34:00,56.0,48.0,-100.00,NE,55,15.0,-999.0,72,0.00,,,-99.99,,2013-01-11 01:34:00,
2013-01-10 20:43:00,56.0,48.0,-100.00,NE,55,15.0,-999.0,72,0.00,,,-99.99,,2013-01-11 01:43:00,
2013-01-10 21:33:00,56.0,47.0,-100.00,ENE,61,16.0,-999.0,71,0.00,,,-99.99,,2013-01-11 02:33:00,
2013-01-10 21:43:00,56.0,47.0,-100.00,ENE,61,16.0,-999.0,71,0.00,,,-99.99,,2013-01-11 02:43:00,
2013-01-10 22:23:00,55.0,48.0,-100.00,ENE,64,12.0,-999.0,77,0.00,,,-99.99,,2013-01-11 03:23:00,
2013-01-10 22:33:00,55.0,48.0,-100.00,ENE,64,12.0,-999.0,77,0.00,,,-99.99,,2013-01-11 03:33:00,
2013-01-10 22:43:00,55.0,48.0,-100.00,ENE,64,12.0,-999.0,77,0.00,,,-99.99,,2013-01-11 03:43:00,
2013-01-10 23:23:00,54.0,49.0,-100.00,ENE,58,11.0,-999.0,82,0.00,,,-99.99,,2013-01-11 04:23:00,
2013-01-10 23:33:00,54.0,49.0,-100.00,ENE,58,11.0,-999.0,82,0.00,,,-99.99,,2013-01-11 04:33:00,
2013-01-10 23:43:00,54.0,49.0,-100.00,ENE,58,11.0,-999.0,82,0.00,,,-99.99,,2013-01-11 04:43:00,